createdAt,value
2019-02-14T00:01:11.983Z,5.80
2019-02-14T00:03:42.335Z,5.70
2019-02-14T00:06:12.761Z,5.70
2019-02-14T00:08:43.161Z,5.70
2019-02-14T00:11:13.495Z,5.70
2019-02-14T00:13:43.827Z,5.70
2019-02-14T00:16:14.194Z,5.80
2019-02-14T00:18:44.591Z,5.80
2019-02-14T00:21:17.213Z,5.80
2019-02-14T00:23:47.531Z,5.80
2019-02-14T00:26:17.834Z,5.80
2019-02-14T00:28:48.177Z,5.80
2019-02-14T00:31:18.525Z,5.80
2019-02-14T00:33:48.898Z,5.80
2019-02-14T00:36:19.258Z,5.80
2019-02-14T00:38:49.531Z,5.80
2019-02-14T00:41:19.881Z,5.90
2019-02-14T00:43:50.230Z,5.80
2019-02-14T00:46:20.621Z,5.80
2019-02-14T00:48:52.555Z,5.80
2019-02-14T00:51:22.871Z,5.80
2019-02-14T00:53:53.192Z,5.80
2019-02-14T00:56:23.656Z,5.80
2019-02-14T00:58:53.998Z,5.80
2019-02-14T01:01:24.289Z,5.90
2019-02-14T01:03:55.764Z,5.90
2019-02-14T01:06:26.162Z,5.80
2019-02-14T01:08:56.490Z,5.80
2019-02-14T01:11:26.794Z,5.80
2019-02-14T01:13:57.055Z,5.80
2019-02-14T01:16:27.405Z,5.80
2019-02-14T01:18:57.826Z,5.80
2019-02-14T01:21:28.177Z,5.80
2019-02-14T01:23:58.841Z,5.80
2019-02-14T01:26:29.427Z,5.80
2019-02-14T01:28:59.769Z,5.80
2019-02-14T01:31:31.246Z,5.80
2019-02-14T01:34:02.619Z,5.80
2019-02-14T01:36:32.901Z,5.80
2019-02-14T01:39:04.934Z,5.80
2019-02-14T01:41:35.782Z,5.80
2019-02-14T01:44:07.250Z,5.80
2019-02-14T01:46:40.107Z,5.80
2019-02-14T01:49:10.443Z,5.80
2019-02-14T01:51:40.769Z,5.80
2019-02-14T01:54:11.214Z,5.80
2019-02-14T01:56:42.798Z,5.80
2019-02-14T01:59:13.189Z,5.80
2019-02-14T02:01:43.635Z,5.80
2019-02-14T02:04:13.962Z,5.80
2019-02-14T02:06:44.341Z,5.80
2019-02-14T02:09:14.651Z,5.80
2019-02-14T02:11:45.029Z,5.80
2019-02-14T02:14:16.156Z,5.80
2019-02-14T02:16:46.611Z,5.80
2019-02-14T02:19:17.008Z,5.80
2019-02-14T02:21:47.377Z,5.70
2019-02-14T02:24:18.277Z,5.80
2019-02-14T02:26:48.655Z,5.80
2019-02-14T02:29:19.058Z,5.80
2019-02-14T02:31:49.472Z,5.80
2019-02-14T02:34:21.070Z,5.70
2019-02-14T02:36:51.392Z,5.70
2019-02-14T02:39:21.713Z,5.70
2019-02-14T02:41:52.036Z,5.70
2019-02-14T02:44:22.368Z,5.80
2019-02-14T02:46:52.732Z,5.70
2019-02-14T02:49:23.075Z,5.70
2019-02-14T02:51:53.557Z,5.70
2019-02-14T02:54:23.830Z,5.70
2019-02-14T02:56:54.128Z,5.70
2019-02-14T02:59:24.611Z,5.70
2019-02-14T03:01:54.926Z,5.70
2019-02-14T03:04:25.220Z,5.70
2019-02-14T03:06:55.603Z,5.70
2019-02-14T03:09:28.517Z,5.70
2019-02-14T03:11:59.098Z,5.70
2019-02-14T03:14:29.447Z,5.70
2019-02-14T03:16:59.801Z,5.70
2019-02-14T03:19:31.212Z,5.60
2019-02-14T03:22:01.628Z,5.70
2019-02-14T03:24:32.217Z,5.60
2019-02-14T03:27:02.506Z,5.60
2019-02-14T03:29:32.795Z,5.60
2019-02-14T03:32:03.145Z,5.60
2019-02-14T03:34:33.530Z,5.60
2019-02-14T03:37:03.933Z,5.60
2019-02-14T03:39:34.331Z,5.60
2019-02-14T03:42:04.632Z,5.70
2019-02-14T03:44:34.991Z,5.70
2019-02-14T03:47:05.378Z,5.60
2019-02-14T03:49:35.885Z,5.60
2019-02-14T03:52:06.236Z,5.70
2019-02-14T03:54:36.561Z,5.60
2019-02-14T03:57:06.925Z,5.70
2019-02-14T03:59:37.823Z,5.70
2019-02-14T04:02:08.133Z,5.70
2019-02-14T04:04:40.510Z,5.60
2019-02-14T04:07:10.987Z,5.60
2019-02-14T04:09:41.438Z,5.70
2019-02-14T04:12:11.791Z,5.60
2019-02-14T04:14:42.162Z,5.60
2019-02-14T04:17:12.488Z,5.60
2019-02-14T04:19:42.794Z,5.60
2019-02-14T04:22:13.039Z,5.60
2019-02-14T04:24:44.358Z,5.60
2019-02-14T04:27:14.761Z,5.50
2019-02-14T04:29:45.194Z,5.50
2019-02-14T04:32:15.542Z,5.60
2019-02-14T04:34:45.857Z,5.50
2019-02-14T04:37:16.273Z,5.50
2019-02-14T04:39:46.635Z,5.50
2019-02-14T04:42:17.589Z,5.50
2019-02-14T04:44:47.974Z,5.50
2019-02-14T04:47:18.301Z,5.50
2019-02-14T04:49:49.991Z,5.50
2019-02-14T04:52:20.342Z,5.50
2019-02-14T04:54:50.635Z,5.50
2019-02-14T04:57:21.081Z,5.60
2019-02-14T04:59:52.499Z,5.50
2019-02-14T05:02:22.892Z,5.50
2019-02-14T05:04:53.384Z,5.50
2019-02-14T05:07:25.145Z,5.50
2019-02-14T05:09:55.972Z,5.50
2019-02-14T05:12:26.336Z,5.50
2019-02-14T05:14:56.688Z,5.50
2019-02-14T05:17:26.989Z,5.50
2019-02-14T05:19:57.313Z,5.50
2019-02-14T05:22:27.626Z,5.50
2019-02-14T05:24:57.981Z,5.50
2019-02-14T05:27:28.490Z,5.50
2019-02-14T05:29:58.848Z,5.50
2019-02-14T05:32:30.832Z,5.50
2019-02-14T05:35:01.229Z,5.50
2019-02-14T05:37:31.660Z,5.50
2019-02-14T05:40:01.931Z,5.50
2019-02-14T05:42:32.352Z,5.50
2019-02-14T05:45:04.594Z,5.50
2019-02-14T05:47:35.061Z,5.50
2019-02-14T05:50:06.061Z,5.50
2019-02-14T05:52:36.588Z,5.60
2019-02-14T05:55:08.184Z,5.60
2019-02-14T05:57:38.583Z,5.60
2019-02-14T06:00:10.984Z,5.60
2019-02-14T06:02:41.413Z,5.50
2019-02-14T06:05:13.061Z,5.50
2019-02-14T06:07:43.454Z,5.50
2019-02-14T06:10:13.794Z,5.60
2019-02-14T06:12:45.800Z,5.50
2019-02-14T06:15:17.301Z,5.50
2019-02-14T06:17:47.698Z,5.50
2019-02-14T06:20:18.060Z,5.50
2019-02-14T06:22:48.460Z,5.50
2019-02-14T06:25:18.814Z,5.50
2019-02-14T06:27:49.251Z,5.50
2019-02-14T06:30:19.676Z,5.40
2019-02-14T06:32:50.162Z,5.40
2019-02-14T06:35:22.372Z,5.40
2019-02-14T06:37:52.933Z,5.40
2019-02-14T06:40:23.262Z,5.40
2019-02-14T06:42:53.690Z,5.40
2019-02-14T06:45:26.192Z,5.40
2019-02-14T06:47:56.208Z,5.30
2019-02-14T06:50:34.580Z,5.30
2019-02-14T06:52:59.042Z,5.30
2019-02-14T06:55:29.411Z,5.40
2019-02-14T06:57:59.906Z,5.40
2019-02-14T07:00:30.314Z,5.30
2019-02-14T07:03:00.712Z,5.30
2019-02-14T07:05:31.048Z,5.30
2019-02-14T07:08:01.516Z,5.30
2019-02-14T07:10:32.001Z,5.40
2019-02-14T07:13:02.410Z,5.40
2019-02-14T07:15:32.803Z,5.40
2019-02-14T07:18:03.285Z,5.40
2019-02-14T07:20:33.795Z,5.40
2019-02-14T07:23:04.385Z,5.40
2019-02-14T07:25:36.372Z,5.40
2019-02-14T07:28:08.210Z,5.40
2019-02-14T07:30:38.618Z,5.40
2019-02-14T07:33:08.977Z,5.40
2019-02-14T07:35:40.077Z,5.40
2019-02-14T07:38:12.688Z,6.80
2019-02-14T07:40:43.052Z,5.40
2019-02-14T07:43:13.430Z,5.40
2019-02-14T07:45:43.822Z,5.40
2019-02-14T07:48:14.300Z,5.40
2019-02-14T07:50:44.711Z,5.40
2019-02-14T07:53:15.259Z,5.40
2019-02-14T07:55:45.770Z,5.40
2019-02-14T07:58:16.628Z,5.40
2019-02-14T08:00:49.295Z,5.40
2019-02-14T08:03:19.934Z,5.40
2019-02-14T08:05:50.698Z,5.40
2019-02-14T08:08:21.756Z,5.40
2019-02-14T08:10:52.546Z,5.40
2019-02-14T08:13:22.972Z,5.40
2019-02-14T08:15:56.162Z,5.40
2019-02-14T08:18:26.877Z,5.40
2019-02-14T08:20:57.225Z,5.40
2019-02-14T08:23:28.575Z,5.40
2019-02-14T08:25:59.255Z,5.50
2019-02-14T08:28:37.096Z,5.50
2019-02-14T08:31:07.604Z,5.50
2019-02-14T08:33:38.002Z,5.40
2019-02-14T08:36:08.516Z,5.50
2019-02-14T08:38:38.990Z,5.50
2019-02-14T08:41:09.410Z,5.50
2019-02-14T08:43:40.870Z,5.50
2019-02-14T08:46:11.318Z,5.50
2019-02-14T08:48:41.637Z,5.50
2019-02-14T08:51:15.655Z,5.50
2019-02-14T08:53:46.033Z,5.50
2019-02-14T08:56:16.402Z,5.50
2019-02-14T08:58:46.956Z,5.50
2019-02-14T09:01:17.362Z,5.50
2019-02-14T09:03:49.994Z,5.50
2019-02-14T09:06:20.341Z,5.50
2019-02-14T09:08:50.812Z,5.50
2019-02-14T09:11:23.278Z,5.50
2019-02-14T09:13:53.799Z,5.50
2019-02-14T09:16:24.130Z,5.50
2019-02-14T09:18:56.760Z,5.60
2019-02-14T09:21:29.071Z,5.70
2019-02-14T09:23:59.708Z,5.70
2019-02-14T09:26:30.419Z,5.80
2019-02-14T09:29:00.656Z,5.70
2019-02-14T09:31:31.038Z,5.80
2019-02-14T09:34:01.435Z,5.80
2019-02-14T09:36:31.921Z,5.80
2019-02-14T09:39:02.416Z,5.80
2019-02-14T09:41:34.267Z,5.90
2019-02-14T09:44:04.774Z,6.00
2019-02-14T09:46:35.335Z,6.00
2019-02-14T09:49:05.724Z,6.00
2019-02-14T09:51:36.178Z,6.10
2019-02-14T09:54:07.037Z,6.10
2019-02-14T09:56:37.595Z,6.10
2019-02-14T09:59:08.249Z,6.10
2019-02-14T10:01:38.795Z,6.10
2019-02-14T10:04:09.549Z,6.20
2019-02-14T10:06:39.954Z,6.20
2019-02-14T10:09:10.556Z,6.20
2019-02-14T10:11:41.187Z,6.30
2019-02-14T10:14:11.998Z,6.30
2019-02-14T10:16:42.482Z,6.40
2019-02-14T10:19:12.951Z,6.40
2019-02-14T10:21:44.653Z,6.40
2019-02-14T10:24:15.091Z,6.40
2019-02-14T10:26:45.590Z,6.50
2019-02-14T10:29:16.074Z,6.60
2019-02-14T10:31:46.994Z,6.60
2019-02-14T10:34:17.405Z,6.60
2019-02-14T10:36:47.851Z,6.60
2019-02-14T10:39:18.221Z,6.80
2019-02-14T10:41:48.691Z,6.80
2019-02-14T10:44:19.219Z,6.70
2019-02-14T10:46:49.542Z,6.70
2019-02-14T10:49:19.942Z,6.70
2019-02-14T10:51:50.374Z,6.70
2019-02-14T10:54:20.817Z,6.70
2019-02-14T10:56:51.219Z,6.70
2019-02-14T10:59:21.616Z,6.70
2019-02-14T11:01:51.966Z,6.60
2019-02-14T11:04:22.294Z,6.70
2019-02-14T11:06:52.689Z,6.70
2019-02-14T11:09:23.011Z,6.60
2019-02-14T11:11:53.335Z,6.60
2019-02-14T11:14:29.232Z,6.60
2019-02-14T11:16:55.781Z,6.70
2019-02-14T11:19:26.131Z,6.70
2019-02-14T11:21:56.496Z,6.80
2019-02-14T11:24:28.018Z,6.70
2019-02-14T11:26:58.389Z,6.80
2019-02-14T11:29:29.972Z,6.80
2019-02-14T11:32:01.473Z,6.80
2019-02-14T11:34:32.001Z,6.80
2019-02-14T11:37:02.397Z,6.70
2019-02-14T11:39:32.911Z,6.60
2019-02-14T11:42:03.353Z,6.60
2019-02-14T11:44:39.635Z,6.60
2019-02-14T11:47:07.802Z,6.60
2019-02-14T11:49:38.278Z,6.60
2019-02-14T11:52:08.834Z,6.50
2019-02-14T11:54:39.331Z,6.60
2019-02-14T11:57:09.809Z,6.60
2019-02-14T11:59:40.599Z,6.50
2019-02-14T12:02:11.210Z,6.50
2019-02-14T12:04:41.525Z,6.50
2019-02-14T12:07:11.944Z,6.50
2019-02-14T12:09:42.333Z,6.60
2019-02-14T12:12:12.804Z,6.50
2019-02-14T12:14:43.253Z,6.50
2019-02-14T12:17:13.749Z,6.50
2019-02-14T12:19:44.199Z,6.50
2019-02-14T12:22:16.853Z,6.50
2019-02-14T12:24:47.255Z,6.50
2019-02-14T12:27:17.688Z,6.60
2019-02-14T12:29:48.019Z,6.60
2019-02-14T12:32:18.437Z,6.60
2019-02-14T12:34:48.837Z,6.50
2019-02-14T12:37:19.265Z,6.50
2019-02-14T12:39:49.749Z,6.50
2019-02-14T12:42:20.176Z,6.60
2019-02-14T12:44:50.719Z,6.60
2019-02-14T12:47:21.107Z,6.60
2019-02-14T12:49:53.415Z,6.50
2019-02-14T12:52:23.869Z,6.50
2019-02-14T12:54:54.288Z,6.50
2019-02-14T12:57:24.605Z,6.50
2019-02-14T12:59:54.894Z,6.50
2019-02-14T13:02:25.346Z,6.50
2019-02-14T13:04:55.773Z,6.40
2019-02-14T13:07:26.117Z,6.40
2019-02-14T13:09:56.476Z,6.40
2019-02-14T13:12:27.993Z,6.40
2019-02-14T13:14:58.445Z,6.50
2019-02-14T13:17:28.880Z,6.50
2019-02-14T13:20:00.870Z,6.60
2019-02-14T13:22:31.408Z,6.70
2019-02-14T13:25:01.866Z,6.60
2019-02-14T13:27:32.258Z,6.70
2019-02-14T13:30:02.653Z,6.60
2019-02-14T13:32:33.066Z,6.70
2019-02-14T13:35:03.555Z,6.70
2019-02-14T13:37:34.003Z,6.70
2019-02-14T13:40:04.700Z,6.70
2019-02-14T13:42:37.271Z,6.70
2019-02-14T13:45:10.576Z,6.70
2019-02-14T13:47:41.019Z,6.80
2019-02-14T13:50:12.144Z,6.80
2019-02-14T13:52:45.429Z,6.80
2019-02-14T13:55:15.809Z,6.80
2019-02-14T13:57:46.287Z,6.80
2019-02-14T14:00:22.587Z,6.70
2019-02-14T14:02:52.933Z,6.70
2019-02-14T14:05:23.791Z,6.60
2019-02-14T14:07:54.100Z,6.60
2019-02-14T14:10:24.597Z,6.60
2019-02-14T14:12:55.053Z,6.50
2019-02-14T14:15:25.512Z,6.50
2019-02-14T14:17:56.125Z,6.60
2019-02-14T14:20:26.575Z,6.60
2019-02-14T14:22:58.171Z,6.60
2019-02-14T14:25:28.642Z,6.60
2019-02-14T14:27:59.075Z,6.60
2019-02-14T14:30:29.521Z,6.60
2019-02-14T14:32:59.931Z,6.60
2019-02-14T14:35:30.298Z,6.60
2019-02-14T14:38:03.078Z,6.60
2019-02-14T14:40:33.623Z,6.60
2019-02-14T14:43:21.836Z,6.60
2019-02-14T14:46:14.031Z,6.60
2019-02-14T14:48:44.711Z,6.60
2019-02-14T14:51:18.985Z,6.50
2019-02-14T14:53:49.334Z,6.50
2019-02-14T14:56:20.089Z,6.50
2019-02-14T14:58:50.477Z,6.50
2019-02-14T15:01:21.019Z,6.50
2019-02-14T15:03:52.239Z,6.50
2019-02-14T15:06:22.758Z,6.50
2019-02-14T15:08:53.111Z,6.50
2019-02-14T15:11:23.414Z,6.50
2019-02-14T15:13:54.832Z,6.50
2019-02-14T15:16:25.320Z,6.50
2019-02-14T15:18:55.847Z,6.50
2019-02-14T15:21:26.219Z,6.50
2019-02-14T15:32:39.908Z,6.40
2019-02-14T15:35:10.528Z,6.40
2019-02-14T15:46:45.567Z,6.40
2019-02-14T15:49:16.229Z,6.40
2019-02-14T15:51:46.736Z,6.40
2019-02-14T15:54:17.133Z,6.40
2019-02-14T15:56:48.139Z,6.40
2019-02-14T15:59:21.040Z,6.30
2019-02-14T16:01:53.567Z,6.30
2019-02-14T16:04:24.295Z,6.30
2019-02-14T16:06:54.896Z,6.40
2019-02-14T16:09:25.482Z,6.30
2019-02-14T16:11:57.765Z,6.40
2019-02-14T16:14:28.134Z,6.30
2019-02-14T16:16:58.579Z,6.30
2019-02-14T16:19:29.041Z,6.30
2019-02-14T16:21:59.792Z,6.30
2019-02-14T16:24:30.312Z,6.30
2019-02-14T16:27:03.616Z,6.30
2019-02-14T16:29:38.297Z,6.20
2019-02-14T16:41:37.025Z,6.20
2019-02-14T16:44:08.767Z,6.20
2019-02-14T16:46:39.140Z,6.20
2019-02-14T16:49:09.548Z,6.20
2019-02-14T16:51:39.927Z,6.20
2019-02-14T16:54:10.492Z,6.10
2019-02-14T16:56:41.033Z,6.10
2019-02-14T16:59:11.508Z,6.10
2019-02-14T17:01:44.885Z,6.20
2019-02-14T17:04:23.730Z,6.20
2019-02-14T17:06:54.135Z,6.20
2019-02-14T17:09:25.267Z,6.20
2019-02-14T17:11:55.574Z,6.20
2019-02-14T17:14:27.812Z,6.20
2019-02-14T17:16:58.123Z,6.20
2019-02-14T17:19:30.743Z,6.20
2019-02-14T17:22:01.168Z,6.20
2019-02-14T17:24:31.656Z,6.20
2019-02-14T17:27:02.049Z,6.20
2019-02-14T17:29:32.475Z,6.20
2019-02-14T17:32:03.183Z,6.20
2019-02-14T17:34:33.719Z,6.20
2019-02-14T17:37:04.165Z,6.20
2019-02-14T17:39:37.704Z,6.20
2019-02-14T17:42:08.078Z,6.20
2019-02-14T17:44:38.701Z,6.20
2019-02-14T17:47:09.090Z,6.20
2019-02-14T17:49:40.448Z,6.10
2019-02-14T17:52:10.978Z,6.10
2019-02-14T17:54:41.402Z,6.20
2019-02-14T17:57:11.778Z,6.20
2019-02-14T17:59:43.815Z,6.20
2019-02-14T18:02:15.245Z,6.20
2019-02-14T18:04:46.707Z,6.20
2019-02-14T18:07:18.091Z,6.20
2019-02-14T18:09:49.811Z,6.20
2019-02-14T18:12:22.799Z,6.20
2019-02-14T18:14:55.252Z,6.30
2019-02-14T18:17:27.367Z,6.30
2019-02-14T18:20:01.594Z,6.20
2019-02-14T18:22:32.538Z,6.30
2019-02-14T18:25:09.670Z,6.20
2019-02-14T18:27:43.227Z,6.20
2019-02-14T18:30:41.839Z,6.20
2019-02-14T18:33:12.366Z,6.20
2019-02-14T18:35:47.872Z,6.20
2019-02-14T18:38:20.456Z,6.20
2019-02-14T18:40:53.053Z,6.20
2019-02-14T18:43:27.989Z,6.20
2019-02-14T18:45:58.860Z,6.20
2019-02-14T18:48:37.159Z,6.20
2019-02-14T18:51:15.935Z,6.20
2019-02-14T18:53:48.106Z,6.10
2019-02-14T18:56:21.210Z,6.10
2019-02-14T18:58:56.935Z,6.10
2019-02-14T19:01:30.312Z,6.10
2019-02-14T19:04:13.777Z,6.10
2019-02-14T19:06:49.457Z,6.00
2019-02-14T19:09:24.481Z,6.00
2019-02-14T19:11:55.770Z,6.00
2019-02-14T19:14:32.461Z,6.00
2019-02-14T19:17:09.624Z,6.00
2019-02-14T19:19:41.385Z,6.00
2019-02-14T19:22:16.182Z,6.00
2019-02-14T19:24:48.701Z,6.10
2019-02-14T19:27:19.593Z,6.10
2019-02-14T19:29:52.414Z,6.10
2019-02-14T19:32:29.942Z,6.10
2019-02-14T19:35:08.082Z,6.10
2019-02-14T19:37:44.295Z,6.10
2019-02-14T19:40:15.102Z,6.10
2019-02-14T19:42:54.497Z,6.10
2019-02-14T19:45:25.045Z,6.20
2019-02-14T19:47:57.537Z,6.20
2019-02-14T19:50:27.929Z,6.20
2019-02-14T19:52:59.371Z,6.20
2019-02-14T19:55:31.823Z,6.20
2019-02-14T19:58:03.767Z,6.20
2019-02-14T20:00:37.141Z,6.20
2019-02-14T20:03:11.540Z,6.30
2019-02-14T20:05:45.188Z,6.20
2019-02-14T20:08:21.177Z,6.20
2019-02-14T20:11:01.135Z,6.20
2019-02-14T20:13:36.123Z,6.20
2019-02-14T20:16:11.540Z,6.20
2019-02-14T20:18:45.037Z,6.20
2019-02-14T20:21:16.009Z,6.20
2019-02-14T20:23:49.386Z,6.20
2019-02-14T20:26:22.237Z,6.10
2019-02-14T20:28:58.352Z,6.10
2019-02-14T20:31:28.917Z,6.00
2019-02-14T20:33:59.846Z,6.00
2019-02-14T20:36:33.860Z,6.00
2019-02-14T20:39:09.514Z,6.10
2019-02-14T20:41:46.015Z,6.10
2019-02-14T20:44:18.872Z,6.00
2019-02-14T20:46:50.923Z,6.00
2019-02-14T20:49:22.415Z,6.00
2019-02-14T20:51:56.287Z,5.90
2019-02-14T20:54:27.601Z,5.90
2019-02-14T20:57:02.099Z,5.90
2019-02-14T20:59:32.651Z,5.90
2019-02-14T21:02:03.109Z,5.90
2019-02-14T21:04:33.583Z,5.90
2019-02-14T21:07:05.445Z,5.90
2019-02-14T21:09:41.252Z,6.00
2019-02-14T21:12:16.453Z,6.00
2019-02-14T21:14:51.880Z,6.00
2019-02-14T21:17:23.112Z,6.00
2019-02-14T21:19:54.859Z,6.00
2019-02-14T21:22:27.645Z,6.10
2019-02-14T21:24:58.197Z,6.00
2019-02-14T21:27:28.726Z,6.00
2019-02-14T21:30:00.803Z,6.00
2019-02-14T21:32:34.560Z,6.10
2019-02-14T21:35:06.778Z,6.10
2019-02-14T21:37:37.393Z,6.00
2019-02-14T21:40:10.602Z,6.00
2019-02-14T21:42:45.695Z,6.00
2019-02-14T21:45:16.082Z,6.00
2019-02-14T21:47:48.007Z,6.00
2019-02-14T21:50:21.424Z,6.10
2019-02-14T21:52:58.039Z,6.00
2019-02-14T21:55:28.449Z,6.10
2019-02-14T21:58:03.935Z,6.00
2019-02-14T22:00:33.474Z,6.00
2019-02-14T22:03:04.536Z,5.90
2019-02-14T22:05:39.836Z,6.00
2019-02-14T22:08:13.108Z,5.90
2019-02-14T22:10:44.028Z,5.90
2019-02-14T22:13:14.906Z,5.90
2019-02-14T22:15:45.467Z,5.80
2019-02-14T22:18:16.308Z,5.80
2019-02-14T22:20:50.322Z,5.80
2019-02-14T22:23:24.218Z,5.80
2019-02-14T22:25:56.514Z,5.80
2019-02-14T22:28:29.164Z,5.80
2019-02-14T22:31:00.837Z,5.80
2019-02-14T22:33:31.305Z,5.80
2019-02-14T22:36:01.807Z,5.80
2019-02-14T22:38:32.368Z,5.80
2019-02-14T22:41:04.340Z,5.80
2019-02-14T22:43:35.366Z,5.80
2019-02-14T22:46:05.865Z,5.80
2019-02-14T22:48:39.758Z,5.80
2019-02-14T22:51:10.184Z,5.70
2019-02-14T22:53:42.775Z,5.80
2019-02-14T22:56:14.304Z,5.80
2019-02-14T22:58:44.688Z,5.80
2019-02-14T23:01:21.450Z,5.80
2019-02-14T23:03:52.314Z,5.80
2019-02-14T23:06:25.735Z,5.70
2019-02-14T23:08:56.099Z,5.70
2019-02-14T23:11:29.283Z,5.70
2019-02-14T23:14:00.529Z,5.70
2019-02-14T23:16:30.972Z,5.70
2019-02-14T23:19:10.455Z,5.70
2019-02-14T23:21:41.571Z,5.80
2019-02-14T23:24:14.753Z,5.80
2019-02-14T23:26:45.193Z,5.80
2019-02-14T23:29:19.554Z,5.80
2019-02-14T23:31:54.139Z,5.80
2019-02-14T23:34:26.409Z,5.80
2019-02-14T23:36:58.212Z,5.80
2019-02-14T23:39:29.618Z,5.80
2019-02-14T23:42:00.089Z,5.80
2019-02-14T23:44:30.563Z,5.80
2019-02-14T23:47:00.885Z,5.80
2019-02-14T23:49:31.464Z,5.90
2019-02-14T23:52:03.763Z,5.80
2019-02-14T23:54:34.318Z,5.90
2019-02-14T23:57:06.423Z,5.90
2019-02-14T23:59:38.044Z,5.90
